Terminal Aerodrome Forecast
Issued by NWS

Home | Current Version | Previous Version | Text Only | Print | Product List | Glossary On
Versions: 1 2 3 4 5 6 7 8 9 10 11 12 13 14 15 16 17
521
FTUS43 KDTX 232320
TAFMBS
TAF
KMBS 232320Z 2400/2424 VRB06KT 3SM RA BR OVC005
     FM240200 32011G20KT 5SM -RA BR OVC008
     FM240500 27018G30KT 6SM -RA BKN015 OVC040
     FM241000 24012G22KT 5SM -SHRA SCT015 OVC025=

USA.gov is the U.S. government's official web portal to all federal, state and local government web resources and services.